Terminal Aerodrome Forecast
Issued by NWS

Current Version | Previous Version | Graphics & Text | Print | Product List | Glossary Off
Versions: 1 2 3 4 5 6 7 8 9 10 11 12 13 14 15 16 17 18 19

000
FTUS41 KILN 212300
TAFLCK
TAF
KLCK 212340Z 2200/2224 21003KT P6SM SCT012 BKN120
     FM220500 20004KT 5SM -SHRA VCTS BKN050CB
     FM220900 21004KT 5SM -SHRA BR SCT012 BKN035
     FM221200 22005KT P6SM VCSH BKN012
     FM221500 23007KT P6SM -SHRA VCTS BKN022CB
     FM221800 25008KT P6SM BKN035=

USA.gov is the U.S. government's official web portal to all federal, state and local government web resources and services.